sensor_id;sensor_type;location;lat;lon;timestamp;pressure;altitude;pressure_sealevel;temperature
72278;BMP280;61204;49.980;8.358;2024-01-15T00:00:43;99481.47;;;-2.09
72278;BMP280;61204;49.980;8.358;2024-01-15T00:03:09;99477.06;;;-2.06
72278;BMP280;61204;49.980;8.358;2024-01-15T00:05:35;99481.72;;;-2.07
72278;BMP280;61204;49.980;8.358;2024-01-15T00:08:01;99473.00;;;-2.13
72278;BMP280;61204;49.980;8.358;2024-01-15T00:10:27;99490.13;;;-2.16
72278;BMP280;61204;49.980;8.358;2024-01-15T00:12:52;99469.81;;;-2.11
72278;BMP280;61204;49.980;8.358;2024-01-15T00:15:22;99469.44;;;-2.02
72278;BMP280;61204;49.980;8.358;2024-01-15T00:17:50;99471.09;;;-1.99
72278;BMP280;61204;49.980;8.358;2024-01-15T00:20:15;99459.41;;;-2.02
72278;BMP280;61204;49.980;8.358;2024-01-15T00:22:41;99458.50;;;-1.91
72278;BMP280;61204;49.980;8.358;2024-01-15T00:25:09;99455.41;;;-1.95
72278;BMP280;61204;49.980;8.358;2024-01-15T00:27:36;99458.50;;;-1.91
72278;BMP280;61204;49.980;8.358;2024-01-15T00:30:02;99456.22;;;-2.00
72278;BMP280;61204;49.980;8.358;2024-01-15T00:32:29;99456.94;;;-2.00
72278;BMP280;61204;49.980;8.358;2024-01-15T00:34:55;99465.00;;;-2.00
72278;BMP280;61204;49.980;8.358;2024-01-15T00:37:22;99461.31;;;-1.97
72278;BMP280;61204;49.980;8.358;2024-01-15T00:39:49;99441.91;;;-1.89
72278;BMP280;61204;49.980;8.358;2024-01-15T00:42:15;99448.66;;;-2.02
72278;BMP280;61204;49.980;8.358;2024-01-15T00:44:42;99447.94;;;-2.02
72278;BMP280;61204;49.980;8.358;2024-01-15T00:47:07;99444.53;;;-2.03
72278;BMP280;61204;49.980;8.358;2024-01-15T00:49:35;99443.09;;;-2.04
72278;BMP280;61204;49.980;8.358;2024-01-15T00:52:01;99447.06;;;-1.91
72278;BMP280;61204;49.980;8.358;2024-01-15T00:54:27;99445.31;;;-1.89
72278;BMP280;61204;49.980;8.358;2024-01-15T00:56:52;99449.22;;;-1.90
72278;BMP280;61204;49.980;8.358;2024-01-15T00:59:18;99448.22;;;-1.87
72278;BMP280;61204;49.980;8.358;2024-01-15T01:01:45;99435.84;;;-1.77
72278;BMP280;61204;49.980;8.358;2024-01-15T01:04:12;99433.25;;;-1.82
72278;BMP280;61204;49.980;8.358;2024-01-15T01:06:38;99419.31;;;-1.81
72278;BMP280;61204;49.980;8.358;2024-01-15T01:09:04;99426.28;;;-1.91
72278;BMP280;61204;49.980;8.358;2024-01-15T01:11:30;99419.16;;;-1.88
72278;BMP280;61204;49.980;8.358;2024-01-15T01:13:55;99408.41;;;-1.88
72278;BMP280;61204;49.980;8.358;2024-01-15T01:16:21;99418.16;;;-1.85
72278;BMP280;61204;49.980;8.358;2024-01-15T01:18:47;99417.41;;;-1.86
72278;BMP280;61204;49.980;8.358;2024-01-15T01:21:13;99422.78;;;-1.86
72278;BMP280;61204;49.980;8.358;2024-01-15T01:23:40;99419.31;;;-1.81
72278;BMP280;61204;49.980;8.358;2024-01-15T01:26:05;99417.72;;;-1.89
72278;BMP280;61204;49.980;8.358;2024-01-15T01:28:31;99422.50;;;-1.82
72278;BMP280;61204;49.980;8.358;2024-01-15T01:30:57;99422.00;;;-1.81
72278;BMP280;61204;49.980;8.358;2024-01-15T01:33:22;99427.97;;;-1.75
72278;BMP280;61204;49.980;8.358;2024-01-15T01:35:48;99428.50;;;-1.76
72278;BMP280;61204;49.980;8.358;2024-01-15T01:38:14;99420.97;;;-1.64
72278;BMP280;61204;49.980;8.358;2024-01-15T01:40:39;99419.53;;;-1.65
72278;BMP280;61204;49.980;8.358;2024-01-15T01:43:05;99413.94;;;-1.67
72278;BMP280;61204;49.980;8.358;2024-01-15T01:45:31;99415.41;;;-1.66
72278;BMP280;61204;49.980;8.358;2024-01-15T01:47:56;99415.41;;;-1.66
72278;BMP280;61204;49.980;8.358;2024-01-15T01:50:22;99404.88;;;-1.51
72278;BMP280;61204;49.980;8.358;2024-01-15T01:52:48;99402.50;;;-1.55
72278;BMP280;61204;49.980;8.358;2024-01-15T01:55:18;99423.59;;;-1.59
72278;BMP280;61204;49.980;8.358;2024-01-15T01:57:45;99427.31;;;-1.49
72278;BMP280;61204;49.980;8.358;2024-01-15T02:00:11;99446.00;;;-1.56
72278;BMP280;61204;49.980;8.358;2024-01-15T02:02:38;99434.97;;;-1.39
72278;BMP280;61204;49.980;8.358;2024-01-15T02:05:04;99428.56;;;-1.50
72278;BMP280;61204;49.980;8.358;2024-01-15T02:07:34;99429.56;;;-1.53
72278;BMP280;61204;49.980;8.358;2024-01-15T02:10:03;99421.69;;;-1.64
72278;BMP280;61204;49.980;8.358;2024-01-15T02:12:31;99432.56;;;-1.56
72278;BMP280;61204;49.980;8.358;2024-01-15T02:14:57;99425.34;;;-1.61
72278;BMP280;61204;49.980;8.358;2024-01-15T02:17:22;99420.16;;;-1.59
72278;BMP280;61204;49.980;8.358;2024-01-15T02:19:49;99409.94;;;-1.61
72278;BMP280;61204;49.980;8.358;2024-01-15T02:22:15;99394.94;;;-1.56
72278;BMP280;61204;49.980;8.358;2024-01-15T02:24:40;99397.44;;;-1.58
72278;BMP280;61204;49.980;8.358;2024-01-15T02:27:07;99388.66;;;-1.59
72278;BMP280;61204;49.980;8.358;2024-01-15T02:29:35;99382.03;;;-1.58
72278;BMP280;61204;49.980;8.358;2024-01-15T02:32:08;99385.97;;;-1.59
72278;BMP280;61204;49.980;8.358;2024-01-15T02:34:34;99393.38;;;-1.52
72278;BMP280;61204;49.980;8.358;2024-01-15T02:37:00;99368.78;;;-1.42
72278;BMP280;61204;49.980;8.358;2024-01-15T02:39:28;99390.59;;;-1.46
72278;BMP280;61204;49.980;8.358;2024-01-15T02:41:54;99388.13;;;-1.44
72278;BMP280;61204;49.980;8.358;2024-01-15T02:44:21;99379.75;;;-1.40
72278;BMP280;61204;49.980;8.358;2024-01-15T02:46:46;99383.66;;;-1.41
72278;BMP280;61204;49.980;8.358;2024-01-15T02:49:14;99391.25;;;-1.40
72278;BMP280;61204;49.980;8.358;2024-01-15T02:51:41;99396.00;;;-1.33
72278;BMP280;61204;49.980;8.358;2024-01-15T02:54:08;99398.19;;;-1.31
72278;BMP280;61204;49.980;8.358;2024-01-15T02:56:36;99391.25;;;-1.27
72278;BMP280;61204;49.980;8.358;2024-01-15T02:59:04;99387.00;;;-1.22
72278;BMP280;61204;49.980;8.358;2024-01-15T03:01:29;99394.25;;;-1.17
72278;BMP280;61204;49.980;8.358;2024-01-15T03:03:57;99379.88;;;-1.19
72278;BMP280;61204;49.980;8.358;2024-01-15T03:06:23;99378.84;;;-1.30
72278;BMP280;61204;49.980;8.358;2024-01-15T03:08:51;99384.22;;;-1.30
72278;BMP280;61204;49.980;8.358;2024-01-15T03:11:16;99383.59;;;-1.23
72278;BMP280;61204;49.980;8.358;2024-01-15T03:13:42;99384.94;;;-1.16
72278;BMP280;61204;49.980;8.358;2024-01-15T03:16:07;99382.97;;;-1.15
72278;BMP280;61204;49.980;8.358;2024-01-15T03:18:33;99405.72;;;-1.16
72278;BMP280;61204;49.980;8.358;2024-01-15T03:20:58;99389.06;;;-1.15
72278;BMP280;61204;49.980;8.358;2024-01-15T03:23:26;99391.97;;;-1.13
72278;BMP280;61204;49.980;8.358;2024-01-15T03:25:52;99396.63;;;-1.13
72278;BMP280;61204;49.980;8.358;2024-01-15T03:28:17;99393.72;;;-1.15
72278;BMP280;61204;49.980;8.358;2024-01-15T03:30:43;99395.56;;;-1.10
72278;BMP280;61204;49.980;8.358;2024-01-15T03:33:08;99402.81;;;-1.18
72278;BMP280;61204;49.980;8.358;2024-01-15T03:35:34;99393.22;;;-1.27
72278;BMP280;61204;49.980;8.358;2024-01-15T03:38:00;99393.72;;;-1.15
72278;BMP280;61204;49.980;8.358;2024-01-15T03:40:25;99388.66;;;-1.19
72278;BMP280;61204;49.980;8.358;2024-01-15T03:42:53;99393.09;;;-1.22
72278;BMP280;61204;49.980;8.358;2024-01-15T03:45:19;99380.50;;;-1.13
72278;BMP280;61204;49.980;8.358;2024-01-15T03:47:45;99374.66;;;-1.04
72278;BMP280;61204;49.980;8.358;2024-01-15T03:50:10;99375.63;;;-1.15
72278;BMP280;61204;49.980;8.358;2024-01-15T03:52:36;99376.63;;;-1.05
72278;BMP280;61204;49.980;8.358;2024-01-15T03:55:01;99376.00;;;-0.98
72278;BMP280;61204;49.980;8.358;2024-01-15T03:57:28;99372.38;;;-1.00
72278;BMP280;61204;49.980;8.358;2024-01-15T03:59:54;99376.31;;;-1.01
72278;BMP280;61204;49.980;8.358;2024-01-15T04:02:19;99360.50;;;-1.05
72278;BMP280;61204;49.980;8.358;2024-01-15T04:04:45;99365.97;;;-1.10
72278;BMP280;61204;49.980;8.358;2024-01-15T04:07:10;99362.88;;;-1.01
72278;BMP280;61204;49.980;8.358;2024-01-15T04:09:36;99372.28;;;-0.94
72278;BMP280;61204;49.980;8.358;2024-01-15T04:12:01;99373.31;;;-0.98
72278;BMP280;61204;49.980;8.358;2024-01-15T04:14:27;99363.91;;;-0.91
72278;BMP280;61204;49.980;8.358;2024-01-15T04:16:55;99368.25;;;-1.01
72278;BMP280;61204;49.980;8.358;2024-01-15T04:19:21;99370.00;;;-0.90
72278;BMP280;61204;49.980;8.358;2024-01-15T04:21:46;99370.63;;;-0.98
72278;BMP280;61204;49.980;8.358;2024-01-15T04:24:12;99359.75;;;-0.92
72278;BMP280;61204;49.980;8.358;2024-01-15T04:26:37;99358.31;;;-0.93
72278;BMP280;61204;49.980;8.358;2024-01-15T04:29:03;99348.81;;;-1.07
72278;BMP280;61204;49.980;8.358;2024-01-15T04:31:30;99352.13;;;-1.01
72278;BMP280;61204;49.980;8.358;2024-01-15T04:33:56;99353.44;;;-0.94
72278;BMP280;61204;49.980;8.358;2024-01-15T04:36:21;99352.69;;;-0.95
72278;BMP280;61204;49.980;8.358;2024-01-15T04:38:47;99349.19;;;-0.90
72278;BMP280;61204;49.980;8.358;2024-01-15T04:41:14;99338.09;;;-0.86
72278;BMP280;61204;49.980;8.358;2024-01-15T04:43:41;99344.22;;;-0.86
72278;BMP280;61204;49.980;8.358;2024-01-15T04:46:07;99339.34;;;-0.87
72278;BMP280;61204;49.980;8.358;2024-01-15T04:48:33;99343.09;;;-0.90
72278;BMP280;61204;49.980;8.358;2024-01-15T04:51:04;99332.50;;;-0.88
72278;BMP280;61204;49.980;8.358;2024-01-15T04:53:31;99321.03;;;-0.89
72278;BMP280;61204;49.980;8.358;2024-01-15T04:55:56;99323.19;;;-0.87
72278;BMP280;61204;49.980;8.358;2024-01-15T04:58:22;99320.19;;;-0.84
72278;BMP280;61204;49.980;8.358;2024-01-15T05:00:50;99323.09;;;-0.82
72278;BMP280;61204;49.980;8.358;2024-01-15T05:03:19;99318.56;;;-0.87
72278;BMP280;61204;49.980;8.358;2024-01-15T05:05:45;99319.34;;;-0.79
72278;BMP280;61204;49.980;8.358;2024-01-15T05:08:11;99315.00;;;-0.82
72278;BMP280;61204;49.980;8.358;2024-01-15T05:10:37;99317.16;;;-0.80
72278;BMP280;61204;49.980;8.358;2024-01-15T05:13:02;99319.47;;;-0.84
72278;BMP280;61204;49.980;8.358;2024-01-15T05:15:28;99317.56;;;-0.76
72278;BMP280;61204;49.980;8.358;2024-01-15T05:17:54;99321.50;;;-0.77
72278;BMP280;61204;49.980;8.358;2024-01-15T05:20:22;99316.59;;;-0.86
72278;BMP280;61204;49.980;8.358;2024-01-15T05:22:48;99309.41;;;-0.84
72278;BMP280;61204;49.980;8.358;2024-01-15T05:25:13;99318.41;;;-0.81
72278;BMP280;61204;49.980;8.358;2024-01-15T05:27:41;99317.31;;;-0.86
72278;BMP280;61204;49.980;8.358;2024-01-15T05:30:07;99321.63;;;-0.83
72278;BMP280;61204;49.980;8.358;2024-01-15T05:32:33;99322.59;;;-0.93
72278;BMP280;61204;49.980;8.358;2024-01-15T05:34:59;99310.44;;;-1.08
72278;BMP280;61204;49.980;8.358;2024-01-15T05:37:24;99313.66;;;-1.09
72278;BMP280;61204;49.980;8.358;2024-01-15T05:39:50;99301.16;;;-1.20
72278;BMP280;61204;49.980;8.358;2024-01-15T05:42:18;99310.16;;;-1.17
72278;BMP280;61204;49.980;8.358;2024-01-15T05:44:43;99305.19;;;-1.13
72278;BMP280;61204;49.980;8.358;2024-01-15T05:47:09;99314.88;;;-1.10
72278;BMP280;61204;49.980;8.358;2024-01-15T05:49:35;99316.34;;;-1.09
72278;BMP280;61204;49.980;8.358;2024-01-15T05:52:01;99307.28;;;-0.99
72278;BMP280;61204;49.980;8.358;2024-01-15T05:54:29;99303.56;;;-0.95
72278;BMP280;61204;49.980;8.358;2024-01-15T05:56:55;99308.13;;;-1.04
72278;BMP280;61204;49.980;8.358;2024-01-15T05:59:20;99308.47;;;-1.07
72278;BMP280;61204;49.980;8.358;2024-01-15T06:01:46;99295.63;;;-1.01
72278;BMP280;61204;49.980;8.358;2024-01-15T06:04:11;99294.91;;;-1.02
72278;BMP280;61204;49.980;8.358;2024-01-15T06:06:37;99296.41;;;-0.93
72278;BMP280;61204;49.980;8.358;2024-01-15T06:09:02;99279.41;;;-0.88
72278;BMP280;61204;49.980;8.358;2024-01-15T06:11:31;99303.31;;;-0.84
72278;BMP280;61204;49.980;8.358;2024-01-15T06:13:57;99303.91;;;-0.78
72278;BMP280;61204;49.980;8.358;2024-01-15T06:16:24;99293.66;;;-0.80
72278;BMP280;61204;49.980;8.358;2024-01-15T06:18:50;99290.72;;;-0.89
72278;BMP280;61204;49.980;8.358;2024-01-15T06:21:16;99304.34;;;-0.87
72278;BMP280;61204;49.980;8.358;2024-01-15T06:23:42;99303.00;;;-0.81
72278;BMP280;61204;49.980;8.358;2024-01-15T06:26:07;99296.69;;;-0.83
72278;BMP280;61204;49.980;8.358;2024-01-15T06:28:33;99295.44;;;-0.82
72278;BMP280;61204;49.980;8.358;2024-01-15T06:30:59;99291.25;;;-0.91
72278;BMP280;61204;49.980;8.358;2024-01-15T06:33:24;99294.34;;;-0.87
72278;BMP280;61204;49.980;8.358;2024-01-15T06:35:50;99291.13;;;-0.85
72278;BMP280;61204;49.980;8.358;2024-01-15T06:38:16;99288.66;;;-0.97
72278;BMP280;61204;49.980;8.358;2024-01-15T06:40:42;99291.97;;;-0.90
72278;BMP280;61204;49.980;8.358;2024-01-15T06:43:11;99298.97;;;-0.87
72278;BMP280;61204;49.980;8.358;2024-01-15T06:45:37;99294.97;;;-0.94
72278;BMP280;61204;49.980;8.358;2024-01-15T06:48:03;99298.66;;;-0.84
72278;BMP280;61204;49.980;8.358;2024-01-15T06:50:30;99295.63;;;-0.80
72278;BMP280;61204;49.980;8.358;2024-01-15T06:52:55;99308.59;;;-0.79
72278;BMP280;61204;49.980;8.358;2024-01-15T06:55:21;99303.38;;;-0.77
72278;BMP280;61204;49.980;8.358;2024-01-15T06:57:46;99304.09;;;-0.76
72278;BMP280;61204;49.980;8.358;2024-01-15T07:00:12;99298.22;;;-0.75
72278;BMP280;61204;49.980;8.358;2024-01-15T07:02:39;99292.63;;;-0.77
72278;BMP280;61204;49.980;8.358;2024-01-15T07:05:04;99290.31;;;-0.73
72278;BMP280;61204;49.980;8.358;2024-01-15T07:07:30;99285.47;;;-0.74
72278;BMP280;61204;49.980;8.358;2024-01-15T07:09:56;99290.84;;;-0.74
72278;BMP280;61204;49.980;8.358;2024-01-15T07:12:22;99285.53;;;-0.66
72278;BMP280;61204;49.980;8.358;2024-01-15T07:14:49;99288.44;;;-0.64
72278;BMP280;61204;49.980;8.358;2024-01-15T07:17:15;99291.66;;;-0.66
72278;BMP280;61204;49.980;8.358;2024-01-15T07:19:40;99296.69;;;-0.62
72278;BMP280;61204;49.980;8.358;2024-01-15T07:22:09;99294.78;;;-0.54
72278;BMP280;61204;49.980;8.358;2024-01-15T07:24:35;99286.47;;;-0.64
72278;BMP280;61204;49.980;8.358;2024-01-15T07:27:00;99284.69;;;-0.61
72278;BMP280;61204;49.980;8.358;2024-01-15T07:29:26;99281.34;;;-0.54
72278;BMP280;61204;49.980;8.358;2024-01-15T07:31:52;99294.34;;;-0.45
72278;BMP280;61204;49.980;8.358;2024-01-15T07:34:18;99294.19;;;-0.39
72278;BMP280;61204;49.980;8.358;2024-01-15T07:36:44;99303.38;;;-0.35
72278;BMP280;61204;49.980;8.358;2024-01-15T07:39:10;99294.53;;;-0.43
72278;BMP280;61204;49.980;8.358;2024-01-15T07:41:36;99295.50;;;-0.33
72278;BMP280;61204;49.980;8.358;2024-01-15T07:44:02;99304.84;;;-0.34
72278;BMP280;61204;49.980;8.358;2024-01-15T07:46:28;99291.09;;;-0.30
72278;BMP280;61204;49.980;8.358;2024-01-15T07:48:57;99293.09;;;-0.44
72278;BMP280;61204;49.980;8.358;2024-01-15T07:51:23;99295.13;;;-0.37
72278;BMP280;61204;49.980;8.358;2024-01-15T07:53:50;99288.31;;;-0.38
72278;BMP280;61204;49.980;8.358;2024-01-15T07:56:18;99295.59;;;-0.25
72278;BMP280;61204;49.980;8.358;2024-01-15T07:58:44;99307.47;;;-0.20
72278;BMP280;61204;49.980;8.358;2024-01-15T08:01:10;99306.09;;;-0.35
72278;BMP280;61204;49.980;8.358;2024-01-15T08:03:35;99305.91;;;-0.37
72278;BMP280;61204;49.980;8.358;2024-01-15T08:06:05;99306.00;;;-0.29
72278;BMP280;61204;49.980;8.358;2024-01-15T08:08:31;99289.16;;;-0.22
72278;BMP280;61204;49.980;8.358;2024-01-15T08:10:56;99298.16;;;-0.19
72278;BMP280;61204;49.980;8.358;2024-01-15T08:13:22;99293.88;;;-0.15
72278;BMP280;61204;49.980;8.358;2024-01-15T08:15:48;99293.59;;;-0.04
72278;BMP280;61204;49.980;8.358;2024-01-15T08:18:13;99292.13;;;-0.05
72278;BMP280;61204;49.980;8.358;2024-01-15T08:20:39;99293.28;;;0.00
72278;BMP280;61204;49.980;8.358;2024-01-15T08:23:05;99283.78;;;0.07
72278;BMP280;61204;49.980;8.358;2024-01-15T08:25:30;99291.91;;;-0.14
72278;BMP280;61204;49.980;8.358;2024-01-15T08:27:56;99291.25;;;-0.07
72278;BMP280;61204;49.980;8.358;2024-01-15T08:30:23;99291.41;;;-0.05
72278;BMP280;61204;49.980;8.358;2024-01-15T08:32:56;99284.06;;;-0.05
72278;BMP280;61204;49.980;8.358;2024-01-15T08:35:22;99285.59;;;0.12
72278;BMP280;61204;49.980;8.358;2024-01-15T08:37:54;99290.47;;;0.13
72278;BMP280;61204;49.980;8.358;2024-01-15T08:40:20;99282.56;;;0.15
72278;BMP280;61204;49.980;8.358;2024-01-15T08:42:46;99287.84;;;0.29
72278;BMP280;61204;49.980;8.358;2024-01-15T08:45:15;99277.97;;;0.31
72278;BMP280;61204;49.980;8.358;2024-01-15T08:47:40;99277.94;;;0.23
72278;BMP280;61204;49.980;8.358;2024-01-15T08:50:08;99277.78;;;0.29
72278;BMP280;61204;49.980;8.358;2024-01-15T08:52:36;99279.03;;;0.28
72278;BMP280;61204;49.980;8.358;2024-01-15T08:55:03;99287.00;;;0.49
72278;BMP280;61204;49.980;8.358;2024-01-15T08:57:30;99287.66;;;0.27
72278;BMP280;61204;49.980;8.358;2024-01-15T08:59:56;99299.59;;;0.10
72278;BMP280;61204;49.980;8.358;2024-01-15T09:02:21;99292.22;;;0.11
72278;BMP280;61204;49.980;8.358;2024-01-15T09:04:49;99305.41;;;0.22
72278;BMP280;61204;49.980;8.358;2024-01-15T09:07:15;99300.41;;;0.26
72278;BMP280;61204;49.980;8.358;2024-01-15T09:09:40;99309.91;;;0.19
72278;BMP280;61204;49.980;8.358;2024-01-15T09:12:07;99307.94;;;0.20
72278;BMP280;61204;49.980;8.358;2024-01-15T09:14:35;99293.69;;;0.12
72278;BMP280;61204;49.980;8.358;2024-01-15T09:17:01;99302.53;;;0.20
72278;BMP280;61204;49.980;8.358;2024-01-15T09:19:29;99311.31;;;0.13
72278;BMP280;61204;49.980;8.358;2024-01-15T09:21:55;99323.94;;;0.26
72278;BMP280;61204;49.980;8.358;2024-01-15T09:24:20;99315.00;;;0.31
72278;BMP280;61204;49.980;8.358;2024-01-15T09:26:46;99312.38;;;0.46
72278;BMP280;61204;49.980;8.358;2024-01-15T09:29:12;99312.78;;;0.58
72278;BMP280;61204;49.980;8.358;2024-01-15T09:31:39;99305.66;;;0.32
72278;BMP280;61204;49.980;8.358;2024-01-15T09:34:07;99300.97;;;0.32
72278;BMP280;61204;49.980;8.358;2024-01-15T09:36:40;99297.25;;;0.43
72278;BMP280;61204;49.980;8.358;2024-01-15T09:39:09;99282.28;;;0.34
72278;BMP280;61204;49.980;8.358;2024-01-15T09:41:36;99274.72;;;0.33
72278;BMP280;61204;49.980;8.358;2024-01-15T09:44:06;99295.56;;;0.24
72278;BMP280;61204;49.980;8.358;2024-01-15T09:46:34;99288.56;;;0.29
72278;BMP280;61204;49.980;8.358;2024-01-15T09:49:00;99284.59;;;0.30
72278;BMP280;61204;49.980;8.358;2024-01-15T09:51:31;99288.91;;;0.33
72278;BMP280;61204;49.980;8.358;2024-01-15T09:53:58;99285.56;;;0.48
72278;BMP280;61204;49.980;8.358;2024-01-15T09:56:24;99287.31;;;0.38
72278;BMP280;61204;49.980;8.358;2024-01-15T09:58:50;99290.66;;;0.59
72278;BMP280;61204;49.980;8.358;2024-01-15T10:01:22;99290.88;;;0.69
72278;BMP280;61204;49.980;8.358;2024-01-15T10:03:48;99285.47;;;0.69
72278;BMP280;61204;49.980;8.358;2024-01-15T10:06:16;99289.28;;;0.73
72278;BMP280;61204;49.980;8.358;2024-01-15T10:08:47;99277.59;;;0.79
72278;BMP280;61204;49.980;8.358;2024-01-15T10:11:16;99260.81;;;0.57
72278;BMP280;61204;49.980;8.358;2024-01-15T10:13:46;99265.31;;;0.62
72278;BMP280;61204;49.980;8.358;2024-01-15T10:16:17;99270.00;;;0.62
72278;BMP280;61204;49.980;8.358;2024-01-15T10:18:42;99282.28;;;0.78
72278;BMP280;61204;49.980;8.358;2024-01-15T10:21:08;99283.25;;;1.11
72278;BMP280;61204;49.980;8.358;2024-01-15T10:23:33;99288.84;;;1.21
72278;BMP280;61204;49.980;8.358;2024-01-15T10:26:00;99285.06;;;1.16
72278;BMP280;61204;49.980;8.358;2024-01-15T10:28:26;99285.22;;;1.03
72278;BMP280;61204;49.980;8.358;2024-01-15T10:30:55;99278.19;;;0.92
72278;BMP280;61204;49.980;8.358;2024-01-15T10:33:24;99283.22;;;0.96
72278;BMP280;61204;49.980;8.358;2024-01-15T10:35:55;99276.03;;;0.98
72278;BMP280;61204;49.980;8.358;2024-01-15T10:38:23;99277.84;;;1.04
72278;BMP280;61204;49.980;8.358;2024-01-15T10:40:54;99276.06;;;1.06
72278;BMP280;61204;49.980;8.358;2024-01-15T10:43:22;99266.13;;;1.01
72278;BMP280;61204;49.980;8.358;2024-01-15T10:45:51;99256.25;;;0.96
72278;BMP280;61204;49.980;8.358;2024-01-15T10:48:18;99247.44;;;0.95
72278;BMP280;61204;49.980;8.358;2024-01-15T10:50:45;99235.72;;;0.93
72278;BMP280;61204;49.980;8.358;2024-01-15T10:53:15;99239.69;;;0.92
72278;BMP280;61204;49.980;8.358;2024-01-15T10:55:43;99240.06;;;1.04
72278;BMP280;61204;49.980;8.358;2024-01-15T10:58:09;99223.88;;;1.19
72278;BMP280;61204;49.980;8.358;2024-01-15T11:00:35;99226.38;;;1.32
72278;BMP280;61204;49.980;8.358;2024-01-15T11:03:03;99227.44;;;1.52
72278;BMP280;61204;49.980;8.358;2024-01-15T11:05:44;99222.19;;;1.69
72278;BMP280;61204;49.980;8.358;2024-01-15T11:08:10;99217.72;;;1.57
72278;BMP280;61204;49.980;8.358;2024-01-15T11:10:51;99220.78;;;1.61
72278;BMP280;61204;49.980;8.358;2024-01-15T11:16:06;99207.84;;;1.44
72278;BMP280;61204;49.980;8.358;2024-01-15T11:23:53;99202.97;;;1.42
72278;BMP280;61204;49.980;8.358;2024-01-15T11:26:46;99214.81;;;1.62
72278;BMP280;61204;49.980;8.358;2024-01-15T11:34:54;99207.94;;;1.84
72278;BMP280;61204;49.980;8.358;2024-01-15T11:37:28;99203.25;;;1.77
72278;BMP280;61204;49.980;8.358;2024-01-15T11:40:21;99187.59;;;1.76
72278;BMP280;61204;49.980;8.358;2024-01-15T11:43:03;99197.84;;;1.77
72278;BMP280;61204;49.980;8.358;2024-01-15T11:45:31;99200.88;;;1.89
72278;BMP280;61204;49.980;8.358;2024-01-15T11:48:15;99184.00;;;1.73
72278;BMP280;61204;49.980;8.358;2024-01-15T11:50:49;99201.75;;;1.91
72278;BMP280;61204;49.980;8.358;2024-01-15T11:53:36;99195.78;;;2.01
72278;BMP280;61204;49.980;8.358;2024-01-15T11:56:15;99199.84;;;2.25
72278;BMP280;61204;49.980;8.358;2024-01-15T11:58:42;99202.22;;;2.20
72278;BMP280;61204;49.980;8.358;2024-01-15T12:01:10;99205.56;;;2.36
72278;BMP280;61204;49.980;8.358;2024-01-15T12:03:39;99190.38;;;2.41
72278;BMP280;61204;49.980;8.358;2024-01-15T12:06:08;99199.88;;;2.50
72278;BMP280;61204;49.980;8.358;2024-01-15T12:08:37;99214.56;;;2.39
72278;BMP280;61204;49.980;8.358;2024-01-15T12:11:06;99206.47;;;2.31
72278;BMP280;61204;49.980;8.358;2024-01-15T12:13:39;99204.84;;;2.36
72278;BMP280;61204;49.980;8.358;2024-01-15T12:16:04;99208.78;;;2.42
72278;BMP280;61204;49.980;8.358;2024-01-15T12:18:30;99207.34;;;2.34
72278;BMP280;61204;49.980;8.358;2024-01-15T12:20:56;99196.22;;;2.30
72278;BMP280;61204;49.980;8.358;2024-01-15T12:23:23;99188.41;;;2.34
72278;BMP280;61204;49.980;8.358;2024-01-15T12:25:50;99209.75;;;2.30
72278;BMP280;61204;49.980;8.358;2024-01-15T12:28:15;99205.91;;;2.33
72278;BMP280;61204;49.980;8.358;2024-01-15T12:30:41;99198.34;;;2.39
72278;BMP280;61204;49.980;8.358;2024-01-15T12:33:07;99203.44;;;2.27
72278;BMP280;61204;49.980;8.358;2024-01-15T12:35:36;99205.63;;;2.29
72278;BMP280;61204;49.980;8.358;2024-01-15T12:38:03;99188.09;;;2.30
72278;BMP280;61204;49.980;8.358;2024-01-15T12:40:31;99193.31;;;2.35
72278;BMP280;61204;49.980;8.358;2024-01-15T12:42:58;99207.53;;;2.36
72278;BMP280;61204;49.980;8.358;2024-01-15T12:45:24;99192.19;;;2.38
72278;BMP280;61204;49.980;8.358;2024-01-15T12:47:50;99196.50;;;2.41
72278;BMP280;61204;49.980;8.358;2024-01-15T12:50:18;99205.13;;;2.47
72278;BMP280;61204;49.980;8.358;2024-01-15T12:52:46;99209.94;;;2.57
72278;BMP280;61204;49.980;8.358;2024-01-15T12:55:13;99210.50;;;2.55
72278;BMP280;61204;49.980;8.358;2024-01-15T12:57:39;99211.34;;;2.65
72278;BMP280;61204;49.980;8.358;2024-01-15T13:00:06;99222.72;;;2.64
72278;BMP280;61204;49.980;8.358;2024-01-15T13:02:36;99203.22;;;2.65
72278;BMP280;61204;49.980;8.358;2024-01-15T13:05:03;99214.59;;;2.64
72278;BMP280;61204;49.980;8.358;2024-01-15T13:07:30;99207.84;;;2.72
72278;BMP280;61204;49.980;8.358;2024-01-15T13:09:56;99208.25;;;2.69
72278;BMP280;61204;49.980;8.358;2024-01-15T13:12:21;99212.22;;;2.68
72278;BMP280;61204;49.980;8.358;2024-01-15T13:14:47;99205.53;;;2.69
72278;BMP280;61204;49.980;8.358;2024-01-15T13:17:13;99201.56;;;2.70
72278;BMP280;61204;49.980;8.358;2024-01-15T13:19:42;99209.13;;;2.71
72278;BMP280;61204;49.980;8.358;2024-01-15T13:22:08;99214.00;;;2.73
72278;BMP280;61204;49.980;8.358;2024-01-15T13:24:34;99217.03;;;2.77
72278;BMP280;61204;49.980;8.358;2024-01-15T13:27:02;99207.41;;;2.84
72278;BMP280;61204;49.980;8.358;2024-01-15T13:29:29;99203.28;;;2.83
72278;BMP280;61204;49.980;8.358;2024-01-15T13:31:55;99200.97;;;2.79
72278;BMP280;61204;49.980;8.358;2024-01-15T13:34:22;99206.69;;;2.83
72278;BMP280;61204;49.980;8.358;2024-01-15T13:36:48;99223.47;;;2.89
72278;BMP280;61204;49.980;8.358;2024-01-15T13:39:15;99213.53;;;2.92
72278;BMP280;61204;49.980;8.358;2024-01-15T13:41:47;99207.38;;;2.91
72278;BMP280;61204;49.980;8.358;2024-01-15T13:44:13;99211.78;;;3.04
72278;BMP280;61204;49.980;8.358;2024-01-15T13:46:38;99205.47;;;3.02
72278;BMP280;61204;49.980;8.358;2024-01-15T13:49:07;99215.09;;;2.95
72278;BMP280;61204;49.980;8.358;2024-01-15T13:51:35;99215.25;;;2.97
72278;BMP280;61204;49.980;8.358;2024-01-15T13:54:03;99218.59;;;2.88
72278;BMP280;61204;49.980;8.358;2024-01-15T13:56:30;99213.91;;;2.88
72278;BMP280;61204;49.980;8.358;2024-01-15T13:58:58;99224.16;;;2.90
72278;BMP280;61204;49.980;8.358;2024-01-15T14:01:25;99231.78;;;2.84
72278;BMP280;61204;49.980;8.358;2024-01-15T14:03:52;99230.91;;;2.81
72278;BMP280;61204;49.980;8.358;2024-01-15T14:06:18;99238.84;;;2.79
72278;BMP280;61204;49.980;8.358;2024-01-15T14:08:44;99245.16;;;2.82
72278;BMP280;61204;49.980;8.358;2024-01-15T14:11:09;99244.94;;;2.87
72278;BMP280;61204;49.980;8.358;2024-01-15T14:13:37;99236.28;;;2.89
72278;BMP280;61204;49.980;8.358;2024-01-15T14:16:05;99241.63;;;2.96
72278;BMP280;61204;49.980;8.358;2024-01-15T14:18:30;99251.56;;;2.94
72278;BMP280;61204;49.980;8.358;2024-01-15T14:20:57;99255.44;;;3.08
72278;BMP280;61204;49.980;8.358;2024-01-15T14:23:23;99256.72;;;3.07
72278;BMP280;61204;49.980;8.358;2024-01-15T14:25:50;99257.81;;;3.04